Time;durP1;ratioP1;P1;durP2;ratioP2;P2;SDS_P1;SDS_P2;PMS_P1;PMS_P2;Temp;Humidity;BMP_temperature;BMP_pressure;BME280_temperature;BME280_humidity;BME280_pressure;Samples;Min_cycle;Max_cycle;Signal;HPM_P1;HPM_P2
2022/03/20 00:01:54;;;;;;;18.10;16.40;;;;;;;3.88;63.22;102686.38;5015994;28;20199;-78
2022/03/20 00:04:21;;;;;;;17.37;15.87;;;;;;;3.84;63.08;102681.88;5016090;28;20223;-80
2022/03/20 00:06:47;;;;;;;18.03;16.23;;;;;;;3.82;63.33;102680.06;5016956;28;20548;-79
2022/03/20 00:09:14;;;;;;;20.47;17.27;;;;;;;3.78;63.51;102672.16;5017793;28;20223;-78
2022/03/20 00:11:40;;;;;;;18.20;16.30;;;;;;;3.75;63.64;102660.81;5015680;28;20207;-77
2022/03/20 00:14:08;;;;;;;18.47;15.87;;;;;;;3.75;63.89;102658.25;5014969;28;20214;-76
2022/03/20 00:16:34;;;;;;;18.03;16.23;;;;;;;3.73;63.65;102659.88;5015236;28;20253;-76
2022/03/20 00:19:02;;;;;;;19.17;16.43;;;;;;;3.74;63.90;102653.88;5018316;28;20226;-79
2022/03/20 00:21:28;;;;;;;17.57;15.80;;;;;;;3.75;63.11;102653.06;5017572;28;20672;-79
2022/03/20 00:23:55;;;;;;;18.60;16.60;;;;;;;3.72;63.43;102661.53;5018421;28;20238;-78
2022/03/20 00:26:24;;;;;;;18.93;16.67;;;;;;;3.68;63.53;102649.31;5018495;28;20819;-77
2022/03/20 00:28:50;;;;;;;18.00;16.17;;;;;;;3.62;63.71;102646.44;5015215;28;20279;-79
2022/03/20 00:31:18;;;;;;;17.57;15.77;;;;;;;3.56;63.77;102631.56;5013369;28;20608;-79
2022/03/20 00:33:45;;;;;;;17.73;16.03;;;;;;;3.54;64.15;102629.72;5016710;28;20617;-77
2022/03/20 00:36:11;;;;;;;17.23;15.63;;;;;;;3.53;63.67;102626.28;5017235;28;20273;-80
2022/03/20 00:38:37;;;;;;;17.90;15.70;;;;;;;3.55;64.12;102622.06;5017549;28;20728;-79
2022/03/20 00:41:04;;;;;;;18.60;15.83;;;;;;;3.55;64.35;102611.72;5016630;28;20253;-78
2022/03/20 00:43:30;;;;;;;21.03;16.73;;;;;;;3.48;64.26;102607.09;5016995;28;20222;-76
2022/03/20 00:45:57;;;;;;;16.70;15.20;;;;;;;3.45;64.41;102601.81;4999875;28;20215;-79
2022/03/20 00:48:25;;;;;;;17.13;15.60;;;;;;;3.47;63.91;102592.44;4986685;28;20226;-77
2022/03/20 00:50:51;;;;;;;16.73;15.23;;;;;;;3.50;63.52;102602.00;4987170;28;20204;-78
2022/03/20 00:53:18;;;;;;;17.40;15.67;;;;;;;3.45;63.59;102606.97;4989011;28;20204;-80
2022/03/20 00:55:44;;;;;;;17.73;15.83;;;;;;;3.42;63.50;102611.97;4986073;28;20200;-79
2022/03/20 00:58:12;;;;;;;17.37;15.43;;;;;;;3.42;63.04;102626.59;4986831;28;20195;-78
2022/03/20 01:00:38;;;;;;;16.47;14.77;;;;;;;3.44;63.31;102624.97;4989780;28;20204;-79
2022/03/20 01:03:05;;;;;;;17.07;15.47;;;;;;;3.42;62.83;102629.19;4991417;28;20232;-80
2022/03/20 01:05:33;;;;;;;18.57;15.27;;;;;;;3.42;62.30;102629.19;4988224;28;20196;-76
2022/03/20 01:08:00;;;;;;;17.67;15.60;;;;;;;3.38;62.75;102629.03;4982048;28;20208;-78
2022/03/20 01:10:26;;;;;;;17.83;15.93;;;;;;;3.38;62.57;102630.72;4984320;28;20199;-77
2022/03/20 01:12:52;;;;;;;17.97;16.37;;;;;;;3.34;62.75;102628.81;4984604;28;20197;-77
2022/03/20 01:15:19;;;;;;;17.00;15.40;;;;;;;3.32;62.47;102621.00;4984064;28;20203;-75
2022/03/20 01:17:45;;;;;;;19.27;16.97;;;;;;;3.23;62.31;102628.34;4985928;28;20218;-76
2022/03/20 01:20:12;;;;;;;16.90;15.30;;;;;;;3.28;62.95;102619.09;4985728;28;20279;-78
2022/03/20 01:22:41;;;;;;;17.73;16.03;;;;;;;3.29;61.97;102625.13;4984228;28;20235;-76
2022/03/20 01:25:09;;;;;;;17.83;16.07;;;;;;;3.25;62.03;102636.13;4986787;28;20227;-76
2022/03/20 01:27:36;;;;;;;17.37;15.77;;;;;;;3.23;62.66;102637.75;4986393;28;20215;-78
2022/03/20 01:30:03;;;;;;;17.07;15.27;;;;;;;3.23;61.70;102630.91;4992394;28;20274;-80
2022/03/20 01:32:30;;;;;;;17.87;16.27;;;;;;;3.15;62.46;102632.22;4993197;28;20200;-76
2022/03/20 01:34:56;;;;;;;18.37;16.40;;;;;;;3.18;61.83;102625.53;4980674;28;20451;-76
2022/03/20 01:37:23;;;;;;;17.87;16.00;;;;;;;3.17;61.72;102628.03;4983373;28;20259;-77
2022/03/20 01:39:52;;;;;;;17.93;16.03;;;;;;;3.17;61.18;102628.94;4984091;28;20270;-78
2022/03/20 01:42:19;;;;;;;18.93;17.17;;;;;;;3.13;61.50;102619.28;4987446;28;20342;-76
2022/03/20 01:44:46;;;;;;;18.00;16.47;;;;;;;3.09;61.64;102611.31;4984100;28;20725;-76
2022/03/20 01:47:13;;;;;;;19.20;17.20;;;;;;;3.03;62.20;102601.56;4983720;28;20199;-78
2022/03/20 01:49:40;;;;;;;17.83;15.93;;;;;;;2.96;62.04;102603.00;4984798;28;20235;-77
2022/03/20 01:52:13;;;;;;;17.30;15.80;;;;;;;2.93;62.03;102592.56;4983874;28;20201;-77
2022/03/20 01:54:42;;;;;;;18.07;16.40;;;;;;;2.91;62.35;102589.00;4985024;28;20192;-78
2022/03/20 01:57:12;;;;;;;18.37;16.57;;;;;;;2.88;62.89;102581.13;4994748;28;20199;-80
2022/03/20 01:59:38;;;;;;;18.53;16.70;;;;;;;2.83;63.41;102568.81;4998106;28;20744;-78
2022/03/20 02:02:06;;;;;;;18.77;16.83;;;;;;;2.85;62.90;102562.91;5014951;28;20730;-78
2022/03/20 02:04:34;;;;;;;18.60;16.87;;;;;;;2.86;63.06;102569.84;5015837;28;20225;-77
2022/03/20 02:07:02;;;;;;;18.47;16.57;;;;;;;2.81;63.18;102562.69;5016069;28;20209;-78
2022/03/20 02:09:29;;;;;;;18.63;16.63;;;;;;;2.78;63.05;102564.31;5016293;28;20230;-78
2022/03/20 02:11:56;;;;;;;18.30;16.60;;;;;;;2.73;63.16;102555.47;5015691;28;20214;-78
2022/03/20 02:14:24;;;;;;;18.90;17.27;;;;;;;2.76;63.55;102545.31;5015905;28;20643;-78
2022/03/20 02:16:51;;;;;;;17.80;16.17;;;;;;;2.66;63.76;102548.28;5015527;28;20567;-79
2022/03/20 02:19:18;;;;;;;18.43;16.20;;;;;;;2.67;64.15;102539.72;5015545;28;20712;-79
2022/03/20 02:21:48;;;;;;;19.97;15.43;;;;;;;2.37;64.10;102541.72;5014830;28;20216;-78
2022/03/20 02:24:36;;;;;;;18.57;16.63;;;;;;;2.34;64.12;102531.28;5015577;28;20246;-79
2022/03/20 02:27:15;;;;;;;22.07;16.90;;;;;;;2.31;64.05;102507.91;5014868;28;20211;-79
2022/03/20 02:29:42;;;;;;;18.83;17.03;;;;;;;2.33;64.46;102514.03;5009032;28;20218;-79
2022/03/20 02:32:11;;;;;;;18.47;16.50;;;;;;;2.28;63.22;102512.91;5016216;28;20278;-77
2022/03/20 02:34:38;;;;;;;18.97;17.37;;;;;;;2.23;62.72;102528.16;5018197;28;20226;-78
2022/03/20 02:37:08;;;;;;;19.03;17.10;;;;;;;2.02;62.41;102547.69;5017257;28;20214;-80
2022/03/20 02:39:35;;;;;;;19.57;17.57;;;;;;;1.66;63.61;102545.91;5016562;28;20727;-78
2022/03/20 02:42:04;;;;;;;18.83;16.93;;;;;;;1.37;64.59;102554.72;5015843;28;20202;-78
2022/03/20 02:44:54;;;;;;;18.77;17.00;;;;;;;1.38;65.68;102503.31;5015209;28;20223;-78
2022/03/20 02:47:23;;;;;;;18.07;16.43;;;;;;;1.38;65.53;102477.56;5012747;28;20655;-78
2022/03/20 02:49:53;;;;;;;19.27;17.13;;;;;;;1.54;65.61;102455.19;5012703;28;20229;-78
2022/03/20 02:52:25;;;;;;;19.20;17.17;;;;;;;1.64;65.85;102453.97;5012984;28;20200;-78
2022/03/20 02:54:52;;;;;;;19.67;16.10;;;;;;;1.67;64.99;102462.75;5012301;28;20222;-78
2022/03/20 02:57:19;;;;;;;18.80;16.13;;;;;;;1.70;64.46;102477.44;5012844;28;20242;-78
2022/03/20 02:59:46;;;;;;;19.03;17.13;;;;;;;1.73;63.51;102491.38;5007584;28;20264;-78
2022/03/20 03:02:13;;;;;;;20.63;16.53;;;;;;;1.60;63.26;102522.44;5012245;28;20203;-77
2022/03/20 03:04:40;;;;;;;22.67;16.93;;;;;;;1.53;62.22;102549.56;5012155;28;20605;-77
2022/03/20 03:07:07;;;;;;;19.17;17.17;;;;;;;1.44;63.21;102541.34;5012286;28;20692;-78
2022/03/20 03:12:21;;;;;;;19.60;17.23;;;;;;;0.90;65.74;102481.91;5015349;28;20696;-79
2022/03/20 03:17:31;;;;;;;23.83;17.53;;;;;;;0.97;65.77;102440.31;5015912;28;20218;-78
2022/03/20 03:19:58;;;;;;;20.23;18.10;;;;;;;1.11;65.61;102443.59;5015739;28;20232;-78
2022/03/20 03:22:27;;;;;;;23.13;17.43;;;;;;;1.26;65.44;102432.34;5016416;28;20265;-78
2022/03/20 03:24:55;;;;;;;20.10;17.80;;;;;;;1.31;65.80;102428.28;5015809;28;20506;-78
2022/03/20 03:27:22;;;;;;;18.63;16.83;;;;;;;1.43;64.94;102439.22;5016793;28;20208;-78
2022/03/20 03:29:48;;;;;;;21.13;18.33;;;;;;;1.39;65.06;102445.03;5006785;28;20727;-79
2022/03/20 03:32:15;;;;;;;26.20;18.20;;;;;;;1.10;64.60;102446.09;5012516;28;20260;-78
2022/03/20 03:37:26;;;;;;;28.60;17.27;;;;;;;1.06;66.16;102427.03;5019237;28;20209;-78
2022/03/20 03:39:52;;;;;;;19.43;17.50;;;;;;;1.16;65.94;102413.84;5018867;28;20787;-78
2022/03/20 03:42:21;;;;;;;18.73;17.03;;;;;;;1.29;65.82;102422.19;5019571;28;20267;-78
2022/03/20 03:44:50;;;;;;;18.83;16.97;;;;;;;1.39;65.19;102421.88;5018619;28;20226;-78
2022/03/20 03:47:17;;;;;;;18.57;16.50;;;;;;;1.47;64.43;102419.69;5019115;28;20638;-78
2022/03/20 03:49:43;;;;;;;22.40;17.83;;;;;;;1.49;64.80;102429.25;5017072;28;20230;-78
2022/03/20 03:52:11;;;;;;;19.30;17.30;;;;;;;1.53;65.43;102418.28;5017596;28;20209;-78
2022/03/20 03:54:37;;;;;;;18.10;16.40;;;;;;;1.51;64.36;102421.59;5017475;28;20210;-77
2022/03/20 03:57:04;;;;;;;20.17;17.37;;;;;;;1.40;64.95;102428.78;5017270;28;20730;-78
2022/03/20 03:59:32;;;;;;;21.17;18.60;;;;;;;1.43;64.31;102438.31;5011537;28;20242;-79
2022/03/20 04:02:00;;;;;;;19.87;17.57;;;;;;;1.47;64.59;102437.72;5019028;28;20258;-79
2022/03/20 04:04:26;;;;;;;18.67;16.90;;;;;;;1.48;64.08;102444.59;5017348;28;20233;-79
2022/03/20 04:06:53;;;;;;;19.77;17.73;;;;;;;1.51;63.76;102443.06;5017079;28;20696;-78
2022/03/20 04:09:20;;;;;;;18.83;16.90;;;;;;;1.48;64.16;102435.19;5017617;28;20264;-78
2022/03/20 04:11:47;;;;;;;18.93;16.87;;;;;;;1.46;65.25;102417.91;5017776;28;20634;-78
2022/03/20 04:14:14;;;;;;;19.17;17.27;;;;;;;1.38;64.96;102415.81;5017037;28;20271;-78
2022/03/20 04:16:41;;;;;;;20.03;17.13;;;;;;;1.35;64.34;102417.38;5018438;28;20215;-79
2022/03/20 04:19:09;;;;;;;23.13;18.13;;;;;;;1.33;64.63;102413.84;5017317;28;20284;-78
2022/03/20 04:21:36;;;;;;;21.00;18.83;;;;;;;1.30;64.58;102424.84;5017759;28;20300;-78
2022/03/20 04:24:02;;;;;;;19.20;17.20;;;;;;;1.32;63.56;102435.22;5016913;28;20207;-80
2022/03/20 04:26:29;;;;;;;20.13;17.83;;;;;;;1.31;63.79;102447.22;5018084;28;20246;-79
2022/03/20 04:28:55;;;;;;;19.37;17.50;;;;;;;1.37;64.78;102429.50;5016190;28;20272;-78
2022/03/20 04:31:22;;;;;;;19.07;17.27;;;;;;;1.39;64.41;102427.91;5014673;28;20322;-77
2022/03/20 04:33:53;;;;;;;19.87;17.80;;;;;;;1.28;65.18;102418.75;5017138;28;20206;-79
2022/03/20 04:36:22;;;;;;;22.07;18.27;;;;;;;1.26;64.51;102404.91;5020580;28;20219;-79
2022/03/20 04:38:49;;;;;;;21.83;17.47;;;;;;;1.19;63.62;102423.44;5017662;28;20229;-78
2022/03/20 04:41:17;;;;;;;19.47;17.67;;;;;;;0.87;63.31;102448.31;5016957;28;20303;-80
2022/03/20 04:43:44;;;;;;;20.80;18.17;;;;;;;0.41;64.13;102455.25;5016179;28;20628;-79
2022/03/20 04:46:10;;;;;;;19.17;16.80;;;;;;;0.24;64.93;102437.22;5015865;28;20236;-77
2022/03/20 04:59:49;;;;;;;19.30;17.17;;;;;;;0.33;62.22;102450.56;4990011;28;20233;-78
2022/03/20 05:02:16;;;;;;;19.53;16.97;;;;;;;0.16;61.78;102477.88;5006417;28;20636;-78
2022/03/20 05:04:42;;;;;;;19.83;17.93;;;;;;;0.13;62.14;102485.41;5015512;28;20286;-78
2022/03/20 05:07:10;;;;;;;23.33;17.83;;;;;;;0.27;63.67;102462.19;5016339;28;20257;-79
2022/03/20 05:15:06;;;;;;;22.43;18.00;;;;;;;0.58;64.23;102437.38;5016190;28;20272;-78
2022/03/20 05:17:33;;;;;;;24.67;18.60;;;;;;;0.67;63.77;102419.00;5015449;28;20216;-79
2022/03/20 05:19:59;;;;;;;20.17;17.90;;;;;;;0.73;63.39;102418.44;5015925;28;20235;-78
2022/03/20 05:22:27;;;;;;;19.60;17.57;;;;;;;0.79;63.03;102419.66;5017237;28;20241;-79
2022/03/20 05:24:54;;;;;;;23.37;17.77;;;;;;;0.69;62.99;102429.34;5016327;28;20345;-77
2022/03/20 05:27:29;;;;;;;18.77;16.77;;;;;;;0.71;63.70;102417.47;5015751;28;20209;-77
2022/03/20 05:29:55;;;;;;;20.47;16.77;;;;;;;0.73;62.85;102411.63;5015515;28;20615;-77
2022/03/20 05:32:23;;;;;;;18.23;16.53;;;;;;;0.79;62.90;102416.19;5017978;28;20210;-78
2022/03/20 05:34:49;;;;;;;18.73;16.83;;;;;;;0.79;62.09;102411.03;5016411;28;20212;-79
2022/03/20 05:37:16;;;;;;;18.97;16.87;;;;;;;0.83;62.00;102419.81;5016098;28;20214;-79
2022/03/20 05:39:47;;;;;;;17.73;15.93;;;;;;;0.87;61.57;102437.16;5016798;28;20225;-78
2022/03/20 05:42:14;;;;;;;20.80;16.20;;;;;;;0.93;61.41;102445.19;5016925;28;20623;-79
2022/03/20 05:44:44;;;;;;;21.87;16.90;;;;;;;0.97;60.31;102457.41;5015127;28;20811;-78
2022/03/20 05:47:10;;;;;;;19.23;17.13;;;;;;;0.98;60.60;102492.63;5015299;28;20212;-79
2022/03/20 05:49:38;;;;;;;18.20;16.00;;;;;;;1.05;60.12;102493.81;5015557;28;20300;-79
2022/03/20 05:52:06;;;;;;;18.17;16.27;;;;;;;1.05;58.76;102509.25;5015633;28;20215;-79
2022/03/20 05:54:33;;;;;;;19.73;17.00;;;;;;;1.13;59.52;102526.88;5015136;28;20216;-79
2022/03/20 05:59:45;;;;;;;23.97;17.03;;;;;;;1.09;59.13;102542.94;5010436;28;20738;-78
2022/03/20 06:02:11;;;;;;;20.43;17.13;;;;;;;1.19;58.59;102545.19;5015663;28;20210;-79
2022/03/20 06:04:39;;;;;;;18.23;16.17;;;;;;;1.28;57.27;102556.78;5015257;28;20230;-80
2022/03/20 06:07:07;;;;;;;18.63;16.57;;;;;;;1.38;56.56;102585.63;5015545;28;20623;-78
2022/03/20 06:09:33;;;;;;;18.00;16.20;;;;;;;1.43;56.92;102609.06;5014585;28;20229;-77
2022/03/20 06:12:01;;;;;;;20.83;16.43;;;;;;;1.43;56.54;102616.78;5015111;28;20209;-79
2022/03/20 06:14:28;;;;;;;18.10;16.20;;;;;;;1.46;56.02;102618.63;5014419;28;20209;-78
2022/03/20 06:16:54;;;;;;;23.03;16.67;;;;;;;1.55;55.25;102626.84;5014529;28;20217;-79
2022/03/20 06:19:21;;;;;;;19.77;15.83;;;;;;;1.53;55.48;102649.03;5014243;28;20226;-79
2022/03/20 06:21:48;;;;;;;22.63;15.53;;;;;;;1.62;54.43;102661.50;5013503;28;20216;-79
2022/03/20 06:24:14;;;;;;;21.03;15.20;;;;;;;1.64;54.39;102676.22;5012345;28;20247;-76
2022/03/20 06:26:41;;;;;;;21.53;16.60;;;;;;;1.67;54.67;102681.56;5012373;28;20229;-77
2022/03/20 06:29:09;;;;;;;18.57;16.60;;;;;;;1.61;54.70;102688.06;5008710;28;20231;-77
2022/03/20 06:31:36;;;;;;;21.07;16.90;;;;;;;1.71;54.93;102691.22;5011408;28;20206;-76
2022/03/20 06:34:03;;;;;;;26.37;16.73;;;;;;;1.79;53.60;102686.47;5011874;28;20262;-75
2022/03/20 06:36:30;;;;;;;18.33;16.37;;;;;;;1.81;53.58;102695.16;5012333;28;20242;-76
2022/03/20 06:38:56;;;;;;;18.37;16.37;;;;;;;1.81;54.45;102695.16;5012915;28;20274;-78
2022/03/20 06:41:23;;;;;;;21.87;15.60;;;;;;;1.83;53.68;102698.72;5013240;28;20748;-77
2022/03/20 06:43:50;;;;;;;21.73;17.10;;;;;;;1.82;53.93;102704.66;5011988;28;20203;-77
2022/03/20 06:46:18;;;;;;;24.95;18.30;;;;;;;1.87;53.10;102687.75;5011795;28;21133;-77
2022/03/20 06:48:44;;;;;;;19.17;17.07;;;;;;;1.91;52.85;102707.72;5012026;28;20645;-77
2022/03/20 06:51:10;;;;;;;17.50;15.63;;;;;;;1.86;53.19;102704.00;5012240;28;20206;-76
2022/03/20 06:53:37;;;;;;;24.30;17.27;;;;;;;1.94;54.20;102709.56;5009792;28;20268;-78
2022/03/20 06:56:04;;;;;;;21.53;18.17;;;;;;;1.98;53.58;102717.56;4992263;28;20203;-77
2022/03/20 06:58:30;;;;;;;19.40;15.87;;;;;;;2.04;52.93;102713.50;4992384;28;20598;-77
2022/03/20 07:00:57;;;;;;;20.00;17.70;;;;;;;2.07;53.94;102724.00;5001332;28;20199;-77
2022/03/20 07:03:25;;;;;;;22.03;17.33;;;;;;;2.11;53.60;102724.22;5012212;28;20203;-75
2022/03/20 07:05:51;;;;;;;22.50;16.70;;;;;;;2.13;53.53;102727.75;5011930;28;20229;-75
2022/03/20 07:08:18;;;;;;;20.50;17.07;;;;;;;2.15;53.00;102733.88;5012081;28;20676;-76
2022/03/20 07:10:44;;;;;;;21.17;17.17;;;;;;;2.22;53.47;102731.63;4996517;28;20216;-78
2022/03/20 07:15:57;;;;;;;19.33;16.73;;;;;;;2.29;52.82;102742.34;4988082;28;20937;-77
2022/03/20 07:18:25;;;;;;;23.70;17.13;;;;;;;2.34;52.89;102746.06;4995735;28;20714;-78
2022/03/20 07:20:55;;;;;;;21.00;17.07;;;;;;;2.33;52.45;102752.00;4996050;28;20219;-77
2022/03/20 07:23:22;;;;;;;22.80;17.47;;;;;;;2.39;53.25;102743.69;4995808;28;20214;-78
2022/03/20 07:31:17;;;;;;;19.47;17.40;;;;;;;2.50;52.64;102724.53;5008734;28;20256;-78
2022/03/20 07:33:44;;;;;;;19.27;17.47;;;;;;;2.52;52.54;102714.31;5014934;28;20619;-77
2022/03/20 07:36:12;;;;;;;19.50;17.20;;;;;;;2.57;53.07;102736.03;5015303;28;20224;-77
2022/03/20 07:38:39;;;;;;;19.17;17.27;;;;;;;2.63;52.84;102730.31;5015679;28;20227;-77
2022/03/20 07:41:05;;;;;;;22.47;18.43;;;;;;;2.62;52.51;102737.16;5015580;28;20218;-78
2022/03/20 07:43:32;;;;;;;19.83;17.13;;;;;;;2.64;51.90;102738.13;5014999;28;20236;-79
2022/03/20 07:45:58;;;;;;;19.23;17.03;;;;;;;2.63;52.71;102738.91;5015175;28;20234;-79
2022/03/20 07:48:25;;;;;;;20.50;18.20;;;;;;;2.70;53.29;102715.22;5015175;28;20222;-77
2022/03/20 07:50:53;;;;;;;18.47;16.53;;;;;;;2.78;52.70;102720.75;5014884;28;20206;-78
2022/03/20 07:53:19;;;;;;;25.83;18.47;;;;;;;2.87;52.40;102716.03;5019566;28;20297;-80
2022/03/20 07:55:46;;;;;;;20.10;17.37;;;;;;;2.93;53.03;102703.47;5022902;28;20725;-82
2022/03/20 07:58:17;;;;;;;19.03;17.13;;;;;;;3.00;52.47;102714.09;5019321;28;20735;-82
2022/03/20 08:00:43;;;;;;;18.10;16.23;;;;;;;3.07;52.90;102713.56;5017921;28;20258;-83
2022/03/20 08:03:09;;;;;;;20.50;18.33;;;;;;;3.11;52.79;102707.72;5020094;28;20253;-78
2022/03/20 08:05:36;;;;;;;20.70;17.07;;;;;;;3.18;52.02;102707.22;5020947;28;20231;-78
2022/03/20 08:08:04;;;;;;;25.20;17.47;;;;;;;3.23;52.33;102718.66;5022434;28;20240;-80
2022/03/20 08:10:31;;;;;;;22.03;18.47;;;;;;;3.30;52.21;102706.94;5022706;28;20208;-81
2022/03/20 08:12:58;;;;;;;24.27;17.67;;;;;;;3.35;51.81;102714.09;5022782;28;20207;-79
2022/03/20 08:15:24;;;;;;;19.90;17.90;;;;;;;3.42;52.17;102717.84;5021283;28;20269;-78
2022/03/20 08:17:51;;;;;;;20.43;18.10;;;;;;;3.47;52.35;102710.28;5022340;28;20611;-79
2022/03/20 08:20:18;;;;;;;22.53;18.00;;;;;;;3.54;51.75;102710.66;5022189;28;20245;-79
2022/03/20 08:22:45;;;;;;;20.47;17.97;;;;;;;3.57;52.02;102708.22;5022489;28;20673;-78
2022/03/20 08:25:13;;;;;;;22.57;18.27;;;;;;;3.60;52.45;102724.69;5022550;28;20234;-80
2022/03/20 08:27:44;;;;;;;20.70;18.00;;;;;;;3.68;52.17;102703.53;5027575;28;20206;-79
2022/03/20 08:30:13;;;;;;;24.58;22.13;;;;;;;3.83;52.09;102708.53;5016708;28;20543;-79
2022/03/20 08:32:40;;;;;;;22.47;19.47;;;;;;;3.93;51.83;102704.69;5014627;28;20207;-79
2022/03/20 08:35:13;;;;;;;24.47;18.93;;;;;;;3.99;51.72;102712.69;5022987;28;20209;-83
2022/03/20 08:37:40;;;;;;;24.37;18.13;;;;;;;4.06;51.72;102703.50;5020254;28;20214;-78
2022/03/20 08:40:08;;;;;;;20.47;17.07;;;;;;;4.11;52.12;102689.97;5014642;28;20230;-79
2022/03/20 08:42:36;;;;;;;20.87;18.77;;;;;;;4.18;52.05;102697.19;5019633;28;20271;-80
2022/03/20 08:45:02;;;;;;;20.83;18.63;;;;;;;4.21;52.14;102690.38;5018868;28;20199;-81
2022/03/20 08:47:31;;;;;;;20.47;18.17;;;;;;;4.32;51.75;102702.06;5025806;28;20222;-81
2022/03/20 08:49:57;;;;;;;21.47;18.13;;;;;;;4.32;51.62;102717.56;5027388;28;20245;-80
2022/03/20 08:52:24;;;;;;;22.60;19.23;;;;;;;4.40;51.06;102705.88;5026455;28;20211;-82
2022/03/20 08:54:50;;;;;;;23.80;19.80;;;;;;;4.44;51.01;102720.72;5024377;28;20206;-81
2022/03/20 08:57:17;;;;;;;21.13;18.30;;;;;;;4.49;50.94;102706.25;5024933;28;20203;-81
2022/03/20 08:59:45;;;;;;;21.97;19.50;;;;;;;4.60;50.24;102716.16;5019844;28;20297;-81
2022/03/20 09:02:11;;;;;;;20.90;18.80;;;;;;;4.65;51.60;102699.16;5023799;28;20669;-80
2022/03/20 09:04:37;;;;;;;21.67;19.00;;;;;;;4.74;51.45;102696.97;5022336;28;20203;-83
2022/03/20 09:07:04;;;;;;;21.17;18.97;;;;;;;4.82;50.48;102697.28;5024498;28;20231;-84
2022/03/20 09:09:31;;;;;;;20.90;18.27;;;;;;;4.85;50.37;102695.69;5023664;28;20227;-79
2022/03/20 09:11:59;;;;;;;20.87;18.63;;;;;;;4.95;50.49;102703.00;5022290;28;20273;-81
2022/03/20 09:14:26;;;;;;;20.63;18.37;;;;;;;5.04;50.47;102699.91;5024543;28;20207;-84
2022/03/20 09:19:38;;;;;;;20.73;18.10;;;;;;;5.17;50.33;102703.84;5023951;28;20230;-79
2022/03/20 09:22:06;;;;;;;24.27;18.13;;;;;;;5.26;50.89;102717.19;5024795;28;20238;-83
2022/03/20 09:24:33;;;;;;;20.43;18.43;;;;;;;5.31;50.08;102702.72;5023971;28;20207;-80
2022/03/20 09:27:00;;;;;;;26.43;18.07;;;;;;;5.39;49.45;102726.31;5021997;28;20731;-81
2022/03/20 09:29:26;;;;;;;19.43;17.63;;;;;;;5.46;49.07;102745.56;5019688;28;20255;-82
2022/03/20 09:31:54;;;;;;;20.43;18.23;;;;;;;5.55;48.66;102745.94;5023885;28;20195;-79
2022/03/20 09:34:21;;;;;;;22.33;18.83;;;;;;;5.62;49.31;102766.06;5021162;28;20619;-79
2022/03/20 09:36:48;;;;;;;19.57;17.77;;;;;;;5.68;49.28;102765.44;5023236;28;20703;-78
2022/03/20 09:39:14;;;;;;;21.20;19.00;;;;;;;5.75;48.45;102757.97;5020486;28;20231;-79
2022/03/20 09:41:42;;;;;;;20.80;18.63;;;;;;;5.80;48.79;102772.78;5021396;28;20206;-78
2022/03/20 09:44:09;;;;;;;22.50;18.03;;;;;;;5.91;48.26;102776.69;5021737;28;20207;-80
2022/03/20 09:46:36;;;;;;;19.93;18.00;;;;;;;6.00;48.65;102787.41;5022981;28;20234;-79
2022/03/20 09:49:06;;;;;;;20.90;17.80;;;;;;;6.10;48.57;102781.75;5017590;28;20736;-79
2022/03/20 09:51:34;;;;;;;19.97;18.10;;;;;;;6.20;47.99;102808.03;5015805;28;20207;-78
2022/03/20 09:54:01;;;;;;;18.17;16.37;;;;;;;6.28;48.35;102799.72;5015044;28;20207;-78
2022/03/20 09:56:28;;;;;;;22.70;17.73;;;;;;;6.39;47.54;102809.63;5015000;28;20203;-75
2022/03/20 09:58:54;;;;;;;20.27;17.60;;;;;;;6.49;47.60;102825.56;5011636;28;20616;-76
2022/03/20 10:01:21;;;;;;;20.17;17.53;;;;;;;6.58;47.23;102817.25;5010162;28;20199;-77
2022/03/20 10:03:47;;;;;;;16.80;15.20;;;;;;;6.70;46.61;102808.97;5012165;28;20734;-78
2022/03/20 10:06:17;;;;;;;18.20;16.40;;;;;;;6.81;45.54;102846.59;5012576;28;20705;-76
2022/03/20 10:09:05;;;;;;;17.43;15.87;;;;;;;6.94;44.97;102881.66;5013002;28;20227;-77
2022/03/20 10:11:32;;;;;;;17.13;15.53;;;;;;;7.05;43.92;102885.50;5013374;28;20736;-78
2022/03/20 10:14:15;;;;;;;17.27;15.67;;;;;;;7.13;43.84;102928.22;5012506;28;20844;-77
2022/03/20 10:16:44;;;;;;;26.70;16.53;;;;;;;7.20;43.92;102915.47;5012344;28;20244;-77
2022/03/20 10:19:30;;;;;;;17.63;15.97;;;;;;;7.30;43.28;102910.63;5012434;28;20234;-74
2022/03/20 10:22:02;;;;;;;17.10;15.40;;;;;;;7.39;42.84;102917.84;5012485;28;20303;-77
2022/03/20 10:24:30;;;;;;;18.27;16.27;;;;;;;7.48;42.18;102901.69;5012330;28;20214;-77
2022/03/20 10:27:09;;;;;;;17.40;15.90;;;;;;;7.53;41.80;102950.41;5012912;28;20242;-78
2022/03/20 10:29:46;;;;;;;16.87;15.27;;;;;;;7.63;43.15;102956.81;5008000;28;20231;-83
2022/03/20 10:32:12;;;;;;;16.10;14.50;;;;;;;7.68;43.25;102950.03;5013690;28;20723;-82
2022/03/20 10:34:50;;;;;;;16.77;15.17;;;;;;;7.78;43.78;102937.34;5016105;28;20211;-81
2022/03/20 10:37:19;;;;;;;18.60;15.87;;;;;;;7.88;42.85;102932.47;5016626;28;20199;-80
2022/03/20 10:39:46;;;;;;;18.13;16.33;;;;;;;7.97;43.46;102913.72;5015634;28;20313;-79
2022/03/20 10:42:13;;;;;;;17.37;15.80;;;;;;;8.09;42.40;102924.50;5012620;28;20261;-78
2022/03/20 10:44:40;;;;;;;17.40;15.67;;;;;;;8.18;42.50;102946.44;5016002;28;20677;-80
2022/03/20 10:47:12;;;;;;;16.77;15.13;;;;;;;8.28;42.84;102957.16;5017312;28;20230;-78
2022/03/20 10:49:39;;;;;;;16.83;15.13;;;;;;;8.41;42.65;102932.44;5019050;28;20781;-78
2022/03/20 10:52:07;;;;;;;17.37;15.77;;;;;;;8.49;41.14;102956.09;5015718;28;20259;-79
2022/03/20 10:54:44;;;;;;;17.87;16.00;;;;;;;8.54;41.40;102997.06;4985442;28;20290;-81
2022/03/20 10:57:12;;;;;;;17.40;15.90;;;;;;;8.67;41.84;102974.88;4985198;28;20210;-81
2022/03/20 10:59:39;;;;;;;17.77;16.00;;;;;;;8.78;40.92;102987.31;5008798;28;20249;-81
2022/03/20 11:02:20;;;;;;;17.87;16.20;;;;;;;8.85;40.46;103010.13;5030730;28;20315;-77
2022/03/20 11:04:46;;;;;;;16.73;15.33;;;;;;;8.98;40.55;103020.06;5032166;28;20265;-79
2022/03/20 11:07:16;;;;;;;17.27;15.77;;;;;;;9.06;40.67;103010.75;5032593;28;20260;-79
2022/03/20 11:09:45;;;;;;;17.13;15.63;;;;;;;9.20;40.55;103010.25;5030122;28;20298;-81
2022/03/20 11:12:18;;;;;;;16.40;14.80;;;;;;;9.33;41.17;103020.16;5030743;28;20236;-82
2022/03/20 11:14:45;;;;;;;15.43;13.93;;;;;;;9.50;40.47;103012.81;5032573;28;20838;-79
2022/03/20 11:17:17;;;;;;;15.60;13.93;;;;;;;9.69;39.62;103042.88;5024999;28;20681;-79
2022/03/20 11:19:50;;;;;;;16.37;14.97;;;;;;;9.86;40.09;103036.38;5019261;28;20639;-78
2022/03/20 11:22:20;;;;;;;15.43;14.13;;;;;;;10.05;38.53;103089.03;5019860;28;20242;-78
2022/03/20 11:24:50;;;;;;;16.90;15.10;;;;;;;10.11;38.44;103105.75;5020421;28;20206;-78
2022/03/20 11:27:23;;;;;;;17.20;15.60;;;;;;;10.21;38.06;103116.41;5020262;28;20328;-78
2022/03/20 11:29:51;;;;;;;15.63;14.23;;;;;;;10.33;37.30;103117.66;5014420;28;20228;-82
2022/03/20 11:32:18;;;;;;;17.63;16.08;;;;;;;10.48;38.27;103139.75;5016813;28;20449;-77
2022/03/20 11:34:46;;;;;;;16.70;15.07;;;;;;;10.74;38.68;103114.25;5015867;28;20301;-77
2022/03/20 11:37:15;;;;;;;15.57;14.10;;;;;;;10.98;36.79;103123.53;5010183;28;20232;-78
2022/03/20 11:40:10;;;;;;;16.93;15.23;;;;;;;11.48;35.46;103147.28;4978225;28;20244;-77
2022/03/20 11:42:36;;;;;;;15.67;14.27;;;;;;;12.41;34.50;103228.56;4978243;28;20242;-78
2022/03/20 11:45:16;;;;;;;16.50;15.00;;;;;;;13.65;32.60;103301.38;4978817;28;20265;-76
2022/03/20 11:47:44;;;;;;;17.20;15.37;;;;;;;14.71;31.08;103370.22;4980743;28;20604;-80
2022/03/20 11:50:22;;;;;;;15.87;14.20;;;;;;;15.42;29.06;103458.63;4981870;28;20232;-79
2022/03/20 11:52:55;;;;;;;14.77;13.53;;;;;;;15.71;27.69;103504.50;4979858;28;20199;-80
2022/03/20 11:55:34;;;;;;;16.00;14.53;;;;;;;15.94;26.97;103573.25;4977692;28;20675;-80
2022/03/20 11:58:02;;;;;;;15.53;14.23;;;;;;;16.33;28.13;103548.94;4979930;28;20212;-79
2022/03/20 12:00:30;;;;;;;17.10;14.90;;;;;;;16.75;25.83;103580.84;4979577;28;20683;-81